Time;durP1;ratioP1;P1;durP2;ratioP2;P2;SDS_P1;SDS_P2;PMS_P1;PMS_P2;Temp;Humidity;BMP_temperature;BMP_pressure;BME280_temperature;BME280_humidity;BME280_pressure;Samples;Min_cycle;Max_cycle;Signal;HPM_P1;HPM_P2
2021/05/12 00:01:21;;;;;;;12.73;6.25;;;;;;;17.00;64.32;98737.31;5097220;28;20494;-53
2021/05/12 00:03:47;;;;;;;14.38;5.68;;;;;;;17.01;64.09;98739.84;5097432;28;20040;-52
2021/05/12 00:06:12;;;;;;;10.25;5.03;;;;;;;16.97;63.71;98726.94;5096300;28;20044;-53
2021/05/12 00:08:38;;;;;;;13.82;6.78;;;;;;;16.88;65.11;98732.84;5097296;28;20077;-53
2021/05/12 00:11:04;;;;;;;10.35;6.90;;;;;;;16.85;65.35;98741.00;5097825;28;20059;-53
2021/05/12 00:13:29;;;;;;;13.70;6.70;;;;;;;16.84;65.50;98736.66;5098061;28;20081;-53
2021/05/12 00:15:55;;;;;;;10.40;7.38;;;;;;;16.48;65.85;98682.66;5097764;28;20341;-53
2021/05/12 00:18:23;;;;;;;14.20;6.43;;;;;;;16.85;65.04;98741.00;5097785;28;20054;-52
2021/05/12 00:20:50;;;;;;;12.68;6.43;;;;;;;16.88;64.18;98732.84;5098188;28;20044;-53
2021/05/12 00:23:24;;;;;;;11.25;6.80;;;;;;;16.77;65.59;98737.09;5097095;28;20121;-47
2021/05/12 00:25:49;;;;;;;10.25;5.72;;;;;;;16.74;65.62;98728.47;5097071;28;20113;-47
2021/05/12 00:28:15;;;;;;;14.75;9.15;;;;;;;16.69;65.77;98731.41;5098030;28;20426;-47
2021/05/12 00:30:41;;;;;;;15.55;7.28;;;;;;;16.67;65.96;98724.53;5097738;28;20390;-47
2021/05/12 00:33:06;;;;;;;12.30;6.47;;;;;;;16.62;65.98;98727.50;5098481;28;20349;-47
2021/05/12 00:35:32;;;;;;;11.40;6.63;;;;;;;16.63;66.23;98720.41;5097565;28;20048;-47
2021/05/12 00:37:58;;;;;;;9.25;6.82;;;;;;;16.62;66.14;98721.38;5096753;28;20048;-47
2021/05/12 00:40:24;;;;;;;15.73;7.47;;;;;;;16.53;66.27;98725.47;5097848;28;20127;-47
2021/05/12 00:42:50;;;;;;;9.90;6.20;;;;;;;16.40;66.87;98711.38;5096652;28;20052;-47
2021/05/12 00:45:18;;;;;;;11.25;6.07;;;;;;;16.51;65.77;98722.94;5079893;28;20058;-52
2021/05/12 00:47:48;;;;;;;10.32;5.85;;;;;;;16.53;65.35;98712.25;5097165;28;20399;-52
2021/05/12 00:50:14;;;;;;;12.80;7.38;;;;;;;16.35;66.78;98711.69;5097719;28;20487;-53
2021/05/12 00:52:40;;;;;;;8.05;5.40;;;;;;;16.16;65.17;98661.84;5096986;28;20113;-53
2021/05/12 00:55:06;;;;;;;10.85;6.25;;;;;;;16.40;65.59;98714.00;5097228;28;20051;-53
2021/05/12 00:57:33;;;;;;;9.60;6.45;;;;;;;16.33;65.77;98709.13;5096922;28;20066;-53
2021/05/12 00:59:59;;;;;;;9.60;6.38;;;;;;;16.32;65.79;98715.38;5097249;28;20047;-53
2021/05/12 01:02:25;;;;;;;9.45;5.85;;;;;;;16.21;66.45;98711.72;5097166;28;20353;-52
2021/05/12 01:04:51;;;;;;;9.80;5.82;;;;;;;16.22;65.46;98708.16;5095957;28;20097;-53
2021/05/12 01:07:17;;;;;;;8.18;5.75;;;;;;;16.20;65.94;98716.16;5096744;28;20052;-52
2021/05/12 01:09:42;;;;;;;11.60;7.00;;;;;;;16.07;66.89;98702.91;5096790;28;20081;-53
2021/05/12 01:12:08;;;;;;;13.30;7.47;;;;;;;16.10;66.34;98705.34;5096158;28;20052;-52
2021/05/12 01:14:35;;;;;;;13.45;9.10;;;;;;;16.03;66.28;98706.69;5096661;28;20040;-53
2021/05/12 01:17:00;;;;;;;10.77;6.95;;;;;;;16.07;65.61;98710.81;5096917;28;20104;-53
2021/05/12 01:19:27;;;;;;;17.30;10.98;;;;;;;16.01;66.42;98707.75;5096362;28;20411;-53
2021/05/12 01:21:53;;;;;;;20.85;10.75;;;;;;;16.03;65.36;98717.25;5096932;28;20044;-53
2021/05/12 01:24:19;;;;;;;18.85;10.35;;;;;;;15.96;66.23;98707.22;5096826;28;20055;-53
2021/05/12 01:26:45;;;;;;;17.63;9.00;;;;;;;15.95;65.71;98700.22;5096412;28;20077;-53
2021/05/12 01:29:11;;;;;;;14.40;9.00;;;;;;;15.89;66.45;98704.97;5095551;28;20044;-53
2021/05/12 01:31:44;;;;;;;15.20;9.52;;;;;;;15.87;67.07;98703.34;5095803;28;20050;-53
2021/05/12 01:34:15;;;;;;;21.17;12.40;;;;;;;15.83;66.48;98704.50;5095413;28;20346;-53
2021/05/12 01:36:41;;;;;;;17.67;10.18;;;;;;;15.78;66.10;98696.00;5078943;28;20056;-53
2021/05/12 01:39:07;;;;;;;16.48;9.20;;;;;;;15.69;66.82;98696.59;5096571;28;20067;-53
2021/05/12 01:41:33;;;;;;;15.88;10.00;;;;;;;15.68;66.80;98701.03;5096552;28;20350;-52
2021/05/12 01:43:58;;;;;;;16.92;8.77;;;;;;;15.64;66.89;98704.78;5096884;28;20048;-53
2021/05/12 01:46:24;;;;;;;10.15;7.40;;;;;;;15.62;66.66;98691.66;5096487;28;20052;-52
2021/05/12 01:48:50;;;;;;;13.38;8.27;;;;;;;15.57;67.27;98706.97;5095349;28;20051;-52
2021/05/12 01:51:16;;;;;;;10.32;6.00;;;;;;;15.56;66.45;98688.56;5096946;28;20366;-52
2021/05/12 01:53:42;;;;;;;6.72;5.15;;;;;;;15.52;66.15;98701.13;5095237;28;20365;-53
2021/05/12 01:56:08;;;;;;;8.77;5.05;;;;;;;15.48;66.21;98699.63;5096280;28;20058;-53
2021/05/12 01:58:34;;;;;;;7.25;4.72;;;;;;;15.44;66.02;98692.84;5095265;28;20385;-52
2021/05/12 02:01:01;;;;;;;8.80;5.60;;;;;;;15.38;66.57;98696.72;5096325;28;20047;-52
2021/05/12 02:03:26;;;;;;;4.95;4.10;;;;;;;15.36;66.23;98698.59;5096293;28;20044;-53
2021/05/12 02:05:53;;;;;;;9.40;4.93;;;;;;;15.34;66.25;98697.84;5096035;28;20044;-52
2021/05/12 02:08:23;;;;;;;9.65;5.00;;;;;;;15.31;66.22;98694.56;5096256;28;20099;-52
2021/05/12 02:10:50;;;;;;;9.93;5.57;;;;;;;15.24;66.84;98690.56;5096607;28;20170;-51
2021/05/12 02:13:16;;;;;;;13.95;5.82;;;;;;;15.17;66.78;98695.38;5096757;28;20048;-52
2021/05/12 02:15:42;;;;;;;10.07;4.97;;;;;;;15.13;67.20;98700.00;5095784;28;20040;-52
2021/05/12 02:18:08;;;;;;;8.68;5.75;;;;;;;15.07;67.82;98695.09;5095295;28;20060;-52
2021/05/12 02:20:35;;;;;;;7.50;4.60;;;;;;;15.05;67.05;98689.09;5095087;28;20060;-51
2021/05/12 02:23:01;;;;;;;9.10;5.20;;;;;;;15.02;67.06;98693.72;5094937;28;20108;-52
2021/05/12 02:25:27;;;;;;;10.57;4.72;;;;;;;14.99;66.73;98686.81;5095836;28;20117;-53
2021/05/12 02:27:53;;;;;;;12.18;6.38;;;;;;;14.96;67.15;98687.00;5096545;28;20048;-53
2021/05/12 02:30:19;;;;;;;13.57;7.18;;;;;;;14.95;67.67;98680.06;5100088;28;20422;-53
2021/05/12 02:32:45;;;;;;;11.85;7.68;;;;;;;14.91;67.13;98683.78;5098957;28;20109;-52
2021/05/12 02:35:11;;;;;;;10.40;6.75;;;;;;;14.82;68.50;98677.31;5100190;28;20044;-53
2021/05/12 02:37:37;;;;;;;10.77;6.18;;;;;;;14.85;67.67;98682.38;5099719;28;20327;-53
2021/05/12 02:40:04;;;;;;;10.20;5.43;;;;;;;14.82;67.39;98687.84;5099029;28;20052;-53
2021/05/12 02:42:30;;;;;;;8.65;6.00;;;;;;;14.77;67.97;98687.25;5099532;28;20412;-52
2021/05/12 02:44:56;;;;;;;12.43;6.00;;;;;;;14.73;67.62;98686.59;5099514;28;20044;-53
2021/05/12 02:47:21;;;;;;;10.68;6.00;;;;;;;14.69;67.63;98684.25;5099466;28;20097;-52
2021/05/12 02:49:47;;;;;;;12.00;6.57;;;;;;;14.61;68.69;98684.69;5099492;28;20064;-53
2021/05/12 02:52:13;;;;;;;12.15;6.68;;;;;;;14.62;68.75;98682.91;5098516;28;20052;-53
2021/05/12 02:54:38;;;;;;;9.10;6.82;;;;;;;14.55;69.77;98684.19;5098476;28;20055;-52
2021/05/12 02:57:04;;;;;;;11.23;7.53;;;;;;;14.56;69.41;98686.75;5099596;28;20063;-52
2021/05/12 02:59:30;;;;;;;7.90;6.15;;;;;;;14.32;70.08;98651.28;5099545;28;20051;-53
2021/05/12 03:01:56;;;;;;;10.77;5.97;;;;;;;14.47;70.22;98672.31;5098754;28;20044;-54
2021/05/12 03:04:21;;;;;;;9.27;5.53;;;;;;;14.46;70.34;98677.66;5081447;28;20064;-53
2021/05/12 03:06:47;;;;;;;7.22;5.00;;;;;;;14.44;70.43;98680.38;5098564;28;20056;-52
2021/05/12 03:09:13;;;;;;;9.95;5.88;;;;;;;14.42;69.81;98681.41;5099015;28;20456;-53
2021/05/12 03:11:39;;;;;;;11.02;5.05;;;;;;;14.38;69.94;98682.53;5098461;28;20123;-53
2021/05/12 03:14:05;;;;;;;6.50;4.90;;;;;;;14.39;69.49;98684.22;5098853;28;20067;-53
2021/05/12 03:16:31;;;;;;;7.22;5.10;;;;;;;14.39;68.86;98686.84;5098340;28;20063;-53
2021/05/12 03:18:57;;;;;;;10.02;6.18;;;;;;;14.33;69.60;98690.72;5098821;28;20129;-53
2021/05/12 03:21:23;;;;;;;11.23;6.15;;;;;;;14.31;70.02;98692.56;5099136;28;20134;-53
2021/05/12 03:23:49;;;;;;;13.10;6.22;;;;;;;14.27;71.06;98686.63;5098720;28;20346;-52
2021/05/12 03:26:19;;;;;;;12.15;6.78;;;;;;;14.32;70.27;98681.09;5098145;28;20052;-53
2021/05/12 03:28:44;;;;;;;7.70;6.20;;;;;;;14.33;70.51;98690.72;5098711;28;20043;-53
2021/05/12 03:31:11;;;;;;;9.48;6.55;;;;;;;14.30;71.38;98688.25;5081253;28;20040;-53
2021/05/12 03:33:37;;;;;;;12.73;8.02;;;;;;;14.27;71.62;98685.78;5097687;28;20359;-52
2021/05/12 03:36:04;;;;;;;19.50;8.10;;;;;;;14.29;71.32;98689.16;5097952;28;20048;-52
2021/05/12 03:38:30;;;;;;;10.00;7.03;;;;;;;14.29;71.49;98689.16;5098787;28;20058;-52
2021/05/12 03:40:56;;;;;;;11.82;5.60;;;;;;;14.31;71.43;98681.19;5098683;28;20346;-53
2021/05/12 03:43:22;;;;;;;8.70;4.88;;;;;;;14.38;70.51;98688.63;5098364;28;20139;-52
2021/05/12 03:45:47;;;;;;;6.78;5.38;;;;;;;14.42;70.16;98690.16;5098444;28;20050;-53
2021/05/12 03:48:13;;;;;;;8.95;6.00;;;;;;;14.45;70.40;98689.13;5098598;28;20074;-52
2021/05/12 03:50:39;;;;;;;12.95;7.20;;;;;;;14.48;70.05;98689.78;5097740;28;20350;-53
2021/05/12 03:53:04;;;;;;;8.60;5.22;;;;;;;14.52;69.83;98690.50;5098259;28;20040;-52
2021/05/12 03:55:30;;;;;;;16.17;6.47;;;;;;;14.55;70.55;98690.31;5097788;28;20044;-53
2021/05/12 03:57:56;;;;;;;12.63;7.82;;;;;;;14.57;70.61;98693.72;5098053;28;20044;-52
2021/05/12 04:00:22;;;;;;;13.18;8.02;;;;;;;14.69;70.94;98692.16;5098426;28;20047;-47
2021/05/12 04:02:48;;;;;;;12.13;6.18;;;;;;;14.82;70.17;98694.88;5080939;28;20060;-47
2021/05/12 04:05:14;;;;;;;9.57;5.93;;;;;;;14.96;69.73;98690.50;5098286;28;20173;-47
2021/05/12 04:07:39;;;;;;;11.02;6.47;;;;;;;15.14;69.96;98692.94;5098233;28;20105;-47
2021/05/12 04:10:06;;;;;;;9.93;5.47;;;;;;;15.39;69.55;98685.19;5098130;28;20051;-47
2021/05/12 04:12:32;;;;;;;6.75;5.25;;;;;;;15.91;69.86;98677.59;5096999;28;20518;-47
2021/05/12 04:14:57;;;;;;;13.20;5.30;;;;;;;16.58;68.96;98676.63;5097764;28;20072;-47
2021/05/12 04:17:25;;;;;;;9.70;6.20;;;;;;;17.14;66.77;98675.53;5098022;28;20048;-47
2021/05/12 04:19:51;;;;;;;14.65;6.85;;;;;;;17.44;63.60;98678.66;5080019;28;20062;-47
2021/05/12 04:22:17;;;;;;;11.07;6.45;;;;;;;17.43;63.17;98687.53;5098209;28;20050;-47
2021/05/12 04:24:43;;;;;;;11.57;6.93;;;;;;;17.61;62.28;98684.53;5097898;28;20092;-47
2021/05/12 04:27:08;;;;;;;9.05;5.55;;;;;;;17.73;61.53;98688.97;5097532;28;20360;-47
2021/05/12 04:29:36;;;;;;;7.13;5.93;;;;;;;17.85;61.27;98693.41;5097519;28;20050;-47
2021/05/12 04:32:03;;;;;;;7.68;4.82;;;;;;;17.98;60.94;98694.19;5097462;28;20044;-47
2021/05/12 04:34:29;;;;;;;11.52;5.38;;;;;;;18.23;60.81;98689.72;5095407;28;20044;-47
2021/05/12 04:36:54;;;;;;;11.13;5.68;;;;;;;18.81;59.57;98695.16;5094747;28;20054;-47
2021/05/12 04:39:20;;;;;;;9.10;5.45;;;;;;;19.25;58.01;98683.75;5095380;28;20048;-47
2021/05/12 04:41:46;;;;;;;7.55;5.72;;;;;;;19.70;57.14;98689.06;5077723;28;20036;-47
2021/05/12 04:44:11;;;;;;;8.05;5.38;;;;;;;19.98;55.52;98695.63;5095375;28;20441;-47
2021/05/12 04:46:39;;;;;;;12.77;6.82;;;;;;;19.62;54.96;98688.78;5095317;28;20051;-47
2021/05/12 04:49:07;;;;;;;10.90;6.10;;;;;;;20.16;54.75;98688.00;5096068;28;20040;-47
2021/05/12 04:51:35;;;;;;;10.80;5.45;;;;;;;21.08;53.76;98690.09;5096026;28;20105;-47
2021/05/12 04:54:04;;;;;;;6.55;4.40;;;;;;;21.90;52.15;98690.00;5096986;28;20401;-47
2021/05/12 04:56:30;;;;;;;7.20;4.72;;;;;;;22.31;51.06;98685.47;5097325;28;20044;-47
2021/05/12 04:58:55;;;;;;;9.35;5.75;;;;;;;22.82;49.67;98682.47;5096935;28;20113;-47
2021/05/12 05:01:21;;;;;;;11.20;6.22;;;;;;;23.45;49.28;98684.56;5097178;28;20051;-47
2021/05/12 05:03:48;;;;;;;7.95;5.47;;;;;;;23.93;47.45;98691.50;5096823;28;20121;-47
2021/05/12 05:06:14;;;;;;;12.02;6.78;;;;;;;24.05;46.28;98689.47;5096864;28;20043;-48
2021/05/12 05:08:40;;;;;;;9.98;6.88;;;;;;;24.36;46.13;98681.06;5097046;28;20044;-47
2021/05/12 05:11:05;;;;;;;9.52;6.57;;;;;;;24.92;45.73;98672.69;5096858;28;20044;-47
2021/05/12 05:13:31;;;;;;;8.43;5.97;;;;;;;25.45;44.61;98678.03;5095866;28;20123;-48
2021/05/12 05:15:57;;;;;;;8.07;5.05;;;;;;;25.81;43.13;98676.88;5096522;28;20404;-48
2021/05/12 05:18:23;;;;;;;5.60;4.30;;;;;;;26.22;42.06;98681.50;5096572;28;20060;-48
2021/05/12 05:20:49;;;;;;;8.55;4.88;;;;;;;26.46;41.08;98675.34;5096438;28;20062;-48
2021/05/12 05:23:15;;;;;;;9.02;5.38;;;;;;;26.58;39.61;98682.06;5095951;28;20051;-48
2021/05/12 05:25:40;;;;;;;7.97;5.40;;;;;;;26.47;39.14;98679.69;5097059;28;20352;-48
2021/05/12 05:28:06;;;;;;;9.23;6.57;;;;;;;25.98;39.57;98674.25;5096743;28;20048;-48
2021/05/12 05:30:32;;;;;;;9.88;6.57;;;;;;;26.03;40.55;98688.00;5095883;28;20059;-48
2021/05/12 05:33:16;;;;;;;9.45;5.95;;;;;;;26.64;39.33;98673.34;5095675;28;20048;-48
2021/05/12 05:36:21;;;;;;;6.80;4.35;;;;;;;27.17;38.63;98693.47;5074808;28;20063;-48
2021/05/12 05:39:05;;;;;;;8.23;4.35;;;;;;;27.67;37.63;98688.75;5074816;28;20049;-48
2021/05/12 05:41:55;;;;;;;9.40;4.05;;;;;;;28.11;36.56;98689.06;5090389;28;20054;-48
2021/05/12 05:44:39;;;;;;;9.75;4.53;;;;;;;28.49;35.59;98685.63;5096565;28;20044;-48
2021/05/12 05:47:26;;;;;;;7.18;4.03;;;;;;;28.85;34.84;98696.63;5095603;28;20070;-48
2021/05/12 05:50:27;;;;;;;9.20;4.38;;;;;;;29.33;34.07;98692.63;5074313;28;20111;-48
2021/05/12 05:53:11;;;;;;;8.90;4.10;;;;;;;29.59;33.60;98697.53;5091907;28;20358;-48
2021/05/12 05:55:55;;;;;;;12.32;5.45;;;;;;;29.96;32.96;98703.84;5096571;28;20560;-48
2021/05/12 05:58:39;;;;;;;15.43;7.22;;;;;;;30.23;32.08;98705.03;5096629;28;20044;-48
2021/05/12 06:01:25;;;;;;;12.00;5.55;;;;;;;30.56;31.72;98707.22;5074976;28;20059;-48
2021/05/12 06:03:51;;;;;;;7.80;5.28;;;;;;;30.86;31.29;98705.25;5097987;28;20044;-48
2021/05/12 06:06:35;;;;;;;6.80;4.45;;;;;;;31.07;31.43;98696.28;5100334;28;20410;-48
2021/05/12 06:09:25;;;;;;;6.75;4.40;;;;;;;31.41;30.53;98708.16;5090467;28;20373;-49
2021/05/12 06:12:09;;;;;;;10.13;4.60;;;;;;;31.54;29.66;98713.66;5099998;28;20067;-48
2021/05/12 06:14:53;;;;;;;7.60;3.38;;;;;;;31.69;29.56;98709.97;5099968;28;20441;-48
2021/05/12 06:17:38;;;;;;;5.68;3.80;;;;;;;31.83;29.16;98712.53;5100897;28;20096;-48
2021/05/12 06:20:23;;;;;;;8.27;3.28;;;;;;;31.95;29.45;98711.97;5099846;28;20075;-49
2021/05/12 06:23:07;;;;;;;6.22;3.22;;;;;;;32.04;29.08;98708.91;5099840;28;20047;-53
2021/05/12 06:25:52;;;;;;;5.93;3.00;;;;;;;32.26;29.06;98712.31;5099734;28;20059;-53
2021/05/12 06:28:36;;;;;;;9.55;5.88;;;;;;;32.35;29.09;98711.09;5099353;28;20051;-53
2021/05/12 06:31:21;;;;;;;8.18;4.53;;;;;;;32.30;28.10;98702.72;5099390;28;20454;-54
2021/05/12 06:34:05;;;;;;;4.45;2.95;;;;;;;32.38;27.72;98709.84;5100197;28;20094;-53
2021/05/12 06:36:50;;;;;;;8.80;3.05;;;;;;;32.31;27.07;98699.00;5099042;28;20330;-53
2021/05/12 06:39:34;;;;;;;8.20;5.10;;;;;;;32.59;27.45;98708.84;5100037;28;20135;-53
2021/05/12 06:42:00;;;;;;;5.75;3.80;;;;;;;32.82;27.22;98700.31;5099588;28;20056;-53
2021/05/12 06:44:26;;;;;;;7.03;3.40;;;;;;;32.71;26.99;98703.66;5100350;28;20054;-53
2021/05/12 06:46:52;;;;;;;5.00;2.60;;;;;;;32.72;26.99;98711.56;5099440;28;20048;-53
2021/05/12 06:49:19;;;;;;;5.68;2.95;;;;;;;32.77;26.67;98705.53;5099716;28;20052;-53
2021/05/12 06:51:47;;;;;;;6.05;3.03;;;;;;;32.77;26.61;98708.25;5099647;28;20047;-53
2021/05/12 06:54:13;;;;;;;3.03;2.13;;;;;;;32.72;26.03;98714.28;5098458;28;20430;-53
2021/05/12 06:56:38;;;;;;;7.22;2.40;;;;;;;32.67;26.54;98707.84;5099389;28;20036;-54
2021/05/12 06:59:04;;;;;;;16.05;8.45;;;;;;;32.47;27.37;98703.22;5098350;28;20059;-53
2021/05/12 07:01:30;;;;;;;14.48;6.97;;;;;;;32.61;27.36;98709.50;5098698;28;20131;-54
2021/05/12 07:03:56;;;;;;;5.82;3.53;;;;;;;32.79;27.16;98706.16;5099490;28;20048;-53
2021/05/12 07:06:22;;;;;;;6.35;3.17;;;;;;;33.03;27.00;98705.56;5099457;28;20048;-53
2021/05/12 07:08:51;;;;;;;6.35;2.72;;;;;;;32.79;26.63;98669.06;5099281;28;20051;-53
2021/05/12 07:11:18;;;;;;;9.40;4.53;;;;;;;32.93;26.61;98710.56;5099043;28;20422;-53
2021/05/12 07:13:43;;;;;;;14.40;5.13;;;;;;;32.86;27.05;98700.72;5099237;28;20111;-53
2021/05/12 07:16:09;;;;;;;5.45;3.58;;;;;;;32.84;26.93;98692.81;5099073;28;20127;-53
2021/05/12 07:18:35;;;;;;;5.43;2.13;;;;;;;33.00;26.36;98692.44;5098185;28;20040;-53
2021/05/12 07:21:01;;;;;;;13.27;4.68;;;;;;;33.27;26.85;98703.25;5098574;28;20051;-53
2021/05/12 07:23:28;;;;;;;5.85;2.88;;;;;;;33.39;26.16;98701.56;5099120;28;20040;-54
2021/05/12 07:25:56;;;;;;;5.63;2.50;;;;;;;33.65;25.77;98713.41;5099044;28;20071;-53
2021/05/12 07:28:22;;;;;;;6.85;3.88;;;;;;;33.54;26.11;98704.06;5098920;28;20067;-53
2021/05/12 07:30:48;;;;;;;5.50;3.35;;;;;;;32.92;25.91;98711.59;5097803;28;20123;-53
2021/05/12 07:33:14;;;;;;;5.70;4.28;;;;;;;33.27;26.56;98703.25;5099191;28;20096;-53
2021/05/12 07:35:40;;;;;;;8.02;3.95;;;;;;;33.86;25.93;98709.56;5097862;28;20108;-54
2021/05/12 07:38:05;;;;;;;4.40;2.50;;;;;;;33.99;25.82;98717.66;5098171;28;20109;-54
2021/05/12 07:40:33;;;;;;;4.93;2.30;;;;;;;34.15;25.66;98710.94;5096896;28;20441;-54
2021/05/12 07:43:00;;;;;;;3.90;2.80;;;;;;;34.13;25.66;98713.03;5096824;28;20074;-54
2021/05/12 07:45:26;;;;;;;7.45;2.67;;;;;;;33.74;25.88;98712.13;5095783;28;20163;-54
2021/05/12 07:47:52;;;;;;;5.75;4.53;;;;;;;33.95;25.90;98705.56;5096293;28;20059;-54
2021/05/12 07:50:18;;;;;;;7.22;3.03;;;;;;;34.10;25.57;98716.19;5096308;28;20354;-54
2021/05/12 07:52:44;;;;;;;3.97;2.88;;;;;;;34.28;25.58;98710.84;5096810;28;20152;-54
2021/05/12 07:55:10;;;;;;;4.18;3.10;;;;;;;34.36;25.63;98707.91;5097428;28;20192;-54
2021/05/12 07:57:36;;;;;;;15.57;8.90;;;;;;;34.41;25.70;98701.78;5098081;28;20059;-54
2021/05/12 08:00:04;;;;;;;8.10;3.97;;;;;;;34.60;25.89;98713.63;5098122;28;20039;-54
2021/05/12 08:02:38;;;;;;;6.75;3.97;;;;;;;34.46;25.71;98714.75;5098166;28;20058;-54
2021/05/12 08:05:04;;;;;;;6.47;4.18;;;;;;;34.42;25.21;98707.03;5098028;28;20047;-54
2021/05/12 08:07:32;;;;;;;7.35;3.55;;;;;;;34.22;26.38;98706.28;5097940;28;20047;-54
2021/05/12 08:09:59;;;;;;;4.57;2.47;;;;;;;34.22;25.78;98708.19;5097196;28;20117;-54
2021/05/12 08:12:24;;;;;;;6.78;2.08;;;;;;;34.17;26.19;98708.84;5097807;28;20056;-54
2021/05/12 08:14:50;;;;;;;5.53;2.42;;;;;;;34.13;25.99;98696.75;5097119;28;20101;-54
2021/05/12 08:17:16;;;;;;;4.15;2.50;;;;;;;34.07;26.25;98714.75;5096916;28;20476;-54
2021/05/12 08:19:41;;;;;;;4.68;2.55;;;;;;;33.84;26.82;98704.38;5097293;28;20064;-54
2021/05/12 08:22:08;;;;;;;5.97;2.63;;;;;;;33.77;26.59;98706.28;5096993;28;20047;-54
2021/05/12 08:24:34;;;;;;;5.22;2.42;;;;;;;33.52;26.84;98717.00;5097111;28;20044;-54
2021/05/12 08:27:04;;;;;;;3.13;2.20;;;;;;;33.39;27.25;98708.88;5096672;28;20448;-54
2021/05/12 08:29:30;;;;;;;4.82;2.10;;;;;;;33.34;27.30;98714.91;5095506;28;20063;-54
2021/05/12 08:31:57;;;;;;;5.60;2.75;;;;;;;33.24;27.35;98704.50;5096010;28;20052;-54
2021/05/12 08:34:22;;;;;;;8.50;5.30;;;;;;;33.09;27.26;98714.75;5094625;28;20039;-54
2021/05/12 08:36:48;;;;;;;8.02;3.10;;;;;;;33.09;27.70;98713.91;5094695;28;20044;-54
2021/05/12 08:39:14;;;;;;;4.68;2.22;;;;;;;33.14;27.50;98712.22;5096087;28;20060;-54
2021/05/12 08:41:41;;;;;;;3.92;2.05;;;;;;;32.98;26.59;98709.94;5096608;28;20078;-54
2021/05/12 08:44:07;;;;;;;5.40;1.65;;;;;;;32.63;26.59;98718.25;5096384;28;20059;-54
2021/05/12 08:46:34;;;;;;;5.35;2.05;;;;;;;32.64;26.63;98705.53;5098281;28;20048;-54
2021/05/12 08:48:59;;;;;;;4.65;1.75;;;;;;;32.63;26.76;98709.28;5096548;28;20044;-54
2021/05/12 08:51:26;;;;;;;2.85;1.63;;;;;;;32.44;26.53;98710.94;5079824;28;20484;-54
2021/05/12 08:53:55;;;;;;;3.97;1.77;;;;;;;32.47;26.79;98703.22;5096158;28;20040;-54
2021/05/12 08:56:21;;;;;;;2.95;1.40;;;;;;;32.41;26.57;98698.59;5097318;28;20497;-48
2021/05/12 08:58:47;;;;;;;1.35;0.82;;;;;;;32.41;25.88;98693.19;5097536;28;20094;-49
2021/05/12 09:01:15;;;;;;;3.72;1.17;;;;;;;32.34;26.13;98692.34;5097146;28;20044;-48
2021/05/12 09:03:41;;;;;;;4.18;1.33;;;;;;;32.32;26.44;98700.66;5097958;28;20075;-48
2021/05/12 09:06:07;;;;;;;4.57;1.95;;;;;;;32.20;26.68;98693.34;5079354;28;20376;-48
2021/05/12 09:08:33;;;;;;;4.05;1.63;;;;;;;32.23;27.29;98687.50;5096176;28;20040;-48
2021/05/12 09:10:59;;;;;;;5.53;1.65;;;;;;;32.22;26.97;98692.09;5096133;28;20102;-48
2021/05/12 09:13:39;;;;;;;4.90;1.80;;;;;;;32.17;27.02;98691.03;5096080;28;20050;-48
2021/05/12 09:16:24;;;;;;;3.00;1.67;;;;;;;32.11;27.46;98698.94;5096776;28;20032;-48
2021/05/12 09:19:07;;;;;;;5.13;2.10;;;;;;;32.15;27.82;98691.25;5096700;28;20056;-49
2021/05/12 09:21:54;;;;;;;3.33;1.80;;;;;;;32.16;27.35;98694.78;5096601;28;20043;-48
2021/05/12 09:24:40;;;;;;;5.35;1.83;;;;;;;32.10;27.04;98694.53;5096804;28;20047;-48
2021/05/12 09:27:12;;;;;;;6.28;1.88;;;;;;;32.23;27.88;98693.75;5097033;28;20361;-48
2021/05/12 09:29:39;;;;;;;6.40;1.93;;;;;;;32.33;27.86;98690.66;5096715;28;20123;-48
2021/05/12 09:32:08;;;;;;;2.80;1.80;;;;;;;32.39;27.77;98683.59;5096719;28;20301;-48
2021/05/12 09:35:03;;;;;;;4.28;2.38;;;;;;;32.46;27.09;98690.69;5096557;28;20048;-48
2021/05/12 09:37:34;;;;;;;2.53;1.90;;;;;;;32.14;26.49;98684.13;5093974;28;20048;-48
2021/05/12 09:40:16;;;;;;;2.63;1.10;;;;;;;31.53;27.89;98690.34;5095744;28;20047;-48
2021/05/12 09:42:41;;;;;;;;;;;;;;;31.85;28.52;98690.69;5097003;28;20048;-48
2021/05/12 09:45:13;;;;;;;3.67;2.33;;;;;;;32.04;27.16;98684.53;5096825;28;20332;-48
2021/05/12 09:47:39;;;;;;;3.72;1.65;;;;;;;32.24;27.20;98678.34;5096496;28;20052;-48
2021/05/12 09:50:16;;;;;;;4.05;1.92;;;;;;;32.16;25.96;98682.06;5096419;28;20422;-48
2021/05/12 09:52:43;;;;;;;4.13;1.48;;;;;;;31.86;26.34;98684.25;5096236;28;20044;-48
2021/05/12 09:55:09;;;;;;;2.22;1.27;;;;;;;32.03;26.26;98685.56;5096062;28;20050;-48
2021/05/12 09:57:36;;;;;;;4.78;1.63;;;;;;;31.79;26.55;98677.97;5096357;28;20050;-48
2021/05/12 10:00:03;;;;;;;4.45;1.65;;;;;;;32.05;26.63;98682.69;5096283;28;20117;-48
2021/05/12 10:02:45;;;;;;;3.90;1.92;;;;;;;32.29;26.96;98675.84;5095211;28;20478;-48
2021/05/12 10:05:11;;;;;;;1.58;1.10;;;;;;;32.12;26.21;98673.53;5095539;28;20105;-48
2021/05/12 10:07:36;;;;;;;3.63;1.45;;;;;;;31.85;24.79;98682.56;5096229;28;20360;-48
2021/05/12 10:10:02;;;;;;;5.05;1.40;;;;;;;31.93;25.76;98678.88;5095118;28;20035;-48
2021/05/12 10:12:31;;;;;;;3.00;1.35;;;;;;;32.00;25.96;98675.16;5078663;28;20091;-48
2021/05/12 10:14:58;;;;;;;4.85;2.67;;;;;;;32.17;26.46;98675.59;5095782;28;20044;-48
2021/05/12 10:17:27;;;;;;;4.22;1.70;;;;;;;31.93;26.14;98670.75;5095770;28;20044;-48
2021/05/12 10:19:55;;;;;;;3.97;1.40;;;;;;;31.87;25.70;98675.91;5094792;28;20417;-48
2021/05/12 10:22:20;;;;;;;3.65;1.80;;;;;;;32.07;26.48;98667.88;5078288;28;20079;-48
2021/05/12 10:24:47;;;;;;;3.28;1.70;;;;;;;32.10;26.42;98664.75;5095665;28;20349;-48
2021/05/12 10:27:17;;;;;;;7.13;2.05;;;;;;;31.77;26.88;98664.63;5095025;28;20047;-48
2021/05/12 10:29:49;;;;;;;1.58;1.45;;;;;;;31.93;26.75;98663.47;5096216;28;20055;-48
2021/05/12 10:32:26;;;;;;;3.58;1.48;;;;;;;31.81;26.90;98662.34;5079126;28;20047;-48
2021/05/12 10:35:18;;;;;;;2.40;1.73;;;;;;;32.05;27.30;98658.31;5095966;28;20056;-48
2021/05/12 10:37:47;;;;;;;5.07;1.98;;;;;;;32.33;27.66;98653.56;5093915;28;20165;-48
2021/05/12 10:40:16;;;;;;;4.75;2.15;;;;;;;32.57;26.91;98654.88;5096242;28;20040;-48
2021/05/12 10:45:50;;;;;;;2.75;1.77;;;;;;;32.26;26.56;98652.72;5095996;28;20055;-48
2021/05/12 10:48:47;;;;;;;2.65;1.58;;;;;;;32.53;26.72;98639.22;5095484;28;20460;-49
2021/05/12 10:51:19;;;;;;;4.10;1.77;;;;;;;32.52;26.56;98641.09;5099569;28;20051;-48
2021/05/12 10:53:46;;;;;;;3.85;1.90;;;;;;;32.57;27.19;98637.78;5098948;28;20040;-48
2021/05/12 10:56:14;;;;;;;2.25;2.05;;;;;;;32.48;27.56;98637.16;5098501;28;20327;-48
2021/05/12 10:58:46;;;;;;;4.10;1.70;;;;;;;32.28;26.63;98633.56;5098291;28;20403;-48
2021/05/12 11:01:12;;;;;;;7.07;1.83;;;;;;;32.05;26.75;98637.47;5099261;28;20445;-48
2021/05/12 11:03:52;;;;;;;4.95;2.17;;;;;;;32.31;27.55;98627.75;5099328;28;20066;-48
2021/05/12 11:06:19;;;;;;;5.50;2.27;;;;;;;32.72;27.36;98635.69;5099349;28;20052;-48
2021/05/12 11:09:08;;;;;;;8.55;2.05;;;;;;;32.84;26.61;98629.66;5098321;28;20108;-48
2021/05/12 11:11:43;;;;;;;2.65;1.75;;;;;;;33.10;27.70;98632.34;5098927;28;20134;-48
2021/05/12 11:14:28;;;;;;;4.05;2.10;;;;;;;32.56;27.55;98618.00;5099012;28;20062;-49
2021/05/12 11:17:04;;;;;;;4.22;1.90;;;;;;;32.67;27.01;98626.53;5099085;28;20430;-48
2021/05/12 11:19:43;;;;;;;4.82;2.03;;;;;;;33.06;27.11;98620.25;5096818;28;20052;-48
2021/05/12 11:33:36;;;;;;;6.00;2.28;;;;;;;33.04;28.34;98622.34;5098622;28;20434;-48
2021/05/12 11:36:16;;;;;;;5.05;2.20;;;;;;;33.16;27.85;98619.81;5097799;28;20068;-48
2021/05/12 11:38:43;;;;;;;3.85;2.63;;;;;;;33.22;27.01;98614.38;5098451;28;20488;-48
2021/05/12 11:41:24;;;;;;;5.43;2.78;;;;;;;32.91;27.56;98606.06;5097712;28;20056;-48
2021/05/12 11:43:54;;;;;;;6.07;2.75;;;;;;;32.99;27.40;98608.59;5098351;28;20042;-48
2021/05/12 11:46:23;;;;;;;3.55;2.13;;;;;;;32.90;27.47;98607.94;5098516;28;20036;-49
2021/05/12 11:48:54;;;;;;;2.95;1.70;;;;;;;33.20;27.95;98611.03;5097605;28;20048;-49
2021/05/12 11:51:29;;;;;;;5.78;2.53;;;;;;;33.37;28.22;98600.53;5097310;28;20040;-48
2021/05/12 11:53:55;;;;;;;4.80;2.10;;;;;;;33.67;27.51;98589.16;5098679;28;20052;-49
2021/05/12 11:56:20;;;;;;;6.80;2.70;;;;;;;33.79;27.14;98592.88;5097354;28;20327;-49